Terminal Aerodrome Forecast
Issued by NWS

Home | Current Version | Previous Version | Text Only | Print | Product List | Glossary On
Versions: 1 2 3 4 5 6 7 8 9 10 11 12 13 14 15 16 17 18 19 20 21 22 23 24 25 26 27 28 29 30 31 32 33 34 35 36 37
000
FTUS45 KGJT 050308 AAA
TAFTEX
TAF AMD
KTEX 050308Z 0503/0524 10008KT P6SM VCTS OVC090CB
      TEMPO 0503/0507 VRB10G20KT -TSRA BKN060CB
     FM050700 13010KT P6SM -SHRA OVC080
     FM050900 13005KT P6SM VCSH SCT050 BKN070
     FM051200 VRB03KT P6SM -RA OVC050
     FM051800 22005KT P6SM VCTS SCT050CB OVC080=

USA.gov is the U.S. government's official web portal to all federal, state and local government web resources and services.